Time;durP1;ratioP1;P1;durP2;ratioP2;P2;SDS_P1;SDS_P2;PMS_P1;PMS_P2;Temp;Humidity;BMP_temperature;BMP_pressure;BME280_temperature;BME280_humidity;BME280_pressure;Samples;Min_cycle;Max_cycle;Signal;HPM_P1;HPM_P2
2023/06/18 00:01:55;;;;;;;10.07;8.38;;;;;;;20.61;60.52;100705.78;5052910;28;20518;-77
2023/06/18 00:04:20;;;;;;;10.83;7.73;;;;;;;20.64;60.73;100703.72;5052081;28;20381;-77
2023/06/18 00:06:46;;;;;;;10.83;8.00;;;;;;;20.63;60.53;100700.19;5053738;28;20377;-77
2023/06/18 00:09:11;;;;;;;9.37;7.73;;;;;;;20.60;60.57;100692.56;5053530;28;20638;-77
2023/06/18 00:11:37;;;;;;;10.30;7.80;;;;;;;20.59;60.64;100707.06;5054346;28;20385;-78
2023/06/18 00:14:02;;;;;;;9.97;7.87;;;;;;;20.61;60.68;100705.78;5055003;28;20369;-77
2023/06/18 00:16:28;;;;;;;9.47;7.80;;;;;;;20.65;60.63;100695.38;5054757;28;20841;-78
2023/06/18 00:18:53;;;;;;;10.43;8.15;;;;;;;20.68;60.57;100704.88;5054821;28;20403;-77
2023/06/18 00:21:18;;;;;;;13.00;8.00;;;;;;;20.77;60.46;100700.75;5054695;28;20380;-78
2023/06/18 00:23:44;;;;;;;8.93;7.53;;;;;;;20.87;60.39;100700.97;5054907;28;20376;-78
2023/06/18 00:26:09;;;;;;;10.45;7.95;;;;;;;20.83;60.32;100694.38;5054068;28;20771;-76
2023/06/18 00:28:35;;;;;;;10.47;7.43;;;;;;;20.77;60.37;100700.75;5054487;28;20432;-78
2023/06/18 00:31:01;;;;;;;9.07;7.80;;;;;;;20.77;60.32;100706.13;5054354;28;20376;-77
2023/06/18 00:33:27;;;;;;;11.05;7.93;;;;;;;20.80;60.13;100711.06;5054194;28;20466;-78
2023/06/18 00:35:59;;;;;;;10.07;7.97;;;;;;;20.72;60.11;100714.09;5052872;28;20861;-78
2023/06/18 00:38:27;;;;;;;9.98;7.85;;;;;;;20.65;60.31;100708.03;5054670;28;20496;-78
2023/06/18 00:40:53;;;;;;;11.10;8.13;;;;;;;20.65;60.29;100700.75;5054137;28;20869;-78
2023/06/18 00:43:18;;;;;;;10.60;8.07;;;;;;;20.75;60.25;100700.97;5054393;28;20405;-77
2023/06/18 00:45:45;;;;;;;11.13;7.90;;;;;;;20.73;60.33;100697.69;5054172;28;20381;-78
2023/06/18 00:48:12;;;;;;;10.65;7.68;;;;;;;20.63;60.48;100700.19;5034851;28;20808;-78
2023/06/18 00:50:40;;;;;;;12.48;7.72;;;;;;;20.58;60.41;100691.94;5052811;28;20435;-77
2023/06/18 00:53:07;;;;;;;10.80;7.82;;;;;;;20.50;60.60;100687.75;5052604;28;20463;-77
2023/06/18 00:55:37;;;;;;;9.80;7.55;;;;;;;20.50;60.61;100695.03;5034946;28;20392;-77
2023/06/18 00:58:05;;;;;;;9.30;7.28;;;;;;;20.64;60.57;100706.41;5051694;28;20431;-77
2023/06/18 01:00:32;;;;;;;9.15;7.38;;;;;;;20.70;60.03;100706.25;5050932;28;20846;-77
2023/06/18 01:03:02;;;;;;;8.10;7.15;;;;;;;20.74;59.84;100703.91;5051964;28;20388;-78
2023/06/18 01:05:31;;;;;;;10.27;7.00;;;;;;;20.79;59.60;100706.69;5051278;28;20435;-77
2023/06/18 01:07:59;;;;;;;8.23;7.15;;;;;;;20.83;59.51;100717.81;5051772;28;20408;-77
2023/06/18 01:10:28;;;;;;;12.60;7.25;;;;;;;20.83;59.33;100715.94;5051376;28;20464;-77
2023/06/18 01:12:55;;;;;;;10.82;7.30;;;;;;;20.85;59.36;100715.72;5051643;28;20404;-77
2023/06/18 01:15:21;;;;;;;8.27;6.90;;;;;;;20.86;59.29;100720.06;5052140;28;20383;-77
2023/06/18 01:17:48;;;;;;;10.90;7.10;;;;;;;20.84;59.12;100719.47;5051666;28;20788;-78
2023/06/18 01:20:17;;;;;;;11.87;7.43;;;;;;;20.84;59.08;100731.06;5051552;28;20388;-77
2023/06/18 01:23:14;;;;;;;9.20;7.10;;;;;;;20.73;59.17;100716.56;5050487;28;20388;-77
2023/06/18 01:25:43;;;;;;;9.07;6.90;;;;;;;20.68;59.52;100724.53;5050821;28;20393;-77
2023/06/18 01:28:08;;;;;;;7.93;7.00;;;;;;;20.66;59.32;100726.66;5051422;28;20918;-77
2023/06/18 01:30:39;;;;;;;8.57;7.10;;;;;;;20.61;59.41;100718.44;5054028;28;20386;-77
2023/06/18 01:33:09;;;;;;;10.45;7.20;;;;;;;20.52;59.48;100715.25;5053672;28;20446;-77
2023/06/18 01:35:34;;;;;;;9.45;6.95;;;;;;;20.47;59.81;100714.34;5054331;28;20411;-77
2023/06/18 01:38:38;;;;;;;9.10;6.55;;;;;;;20.43;59.71;100716.69;5051130;28;20385;-78
2023/06/18 01:41:18;;;;;;;9.00;6.72;;;;;;;20.49;59.56;100710.38;5050143;28;20376;-77
2023/06/18 01:43:55;;;;;;;8.57;6.90;;;;;;;20.46;59.65;100710.84;5051163;28;20377;-78
2023/06/18 01:46:23;;;;;;;11.85;7.13;;;;;;;20.40;59.82;100709.06;5051644;28;20377;-77
2023/06/18 01:48:53;;;;;;;10.05;7.10;;;;;;;20.43;59.60;100716.69;5033162;28;20405;-77
2023/06/18 01:51:20;;;;;;;8.68;6.50;;;;;;;20.40;59.38;100709.06;5051121;28;20845;-77
2023/06/18 01:53:47;;;;;;;8.02;6.65;;;;;;;20.37;59.55;100710.38;5050644;28;20381;-77
2023/06/18 01:56:13;;;;;;;8.17;6.87;;;;;;;20.42;59.34;100710.47;5050991;28;20406;-77
2023/06/18 01:58:42;;;;;;;7.80;6.68;;;;;;;20.48;59.19;100705.22;5050921;28;20433;-77
2023/06/18 02:01:09;;;;;;;9.82;7.00;;;;;;;20.44;59.07;100710.25;5050864;28;20377;-77
2023/06/18 02:03:36;;;;;;;7.95;6.35;;;;;;;20.44;59.15;100726.41;5050735;28;20392;-77
2023/06/18 02:06:02;;;;;;;8.98;6.25;;;;;;;20.35;59.14;100725.94;5051608;28;20407;-77
2023/06/18 02:08:27;;;;;;;10.00;7.05;;;;;;;20.44;59.00;100726.41;5050497;28;20404;-77
2023/06/18 02:10:53;;;;;;;7.70;6.30;;;;;;;20.46;58.93;100723.50;5056159;28;20448;-77
2023/06/18 02:13:18;;;;;;;9.60;6.65;;;;;;;20.44;58.99;100723.72;5071419;28;20478;-78
2023/06/18 02:15:44;;;;;;;7.23;6.30;;;;;;;20.45;58.99;100725.34;5072651;28;20382;-78
2023/06/18 02:18:11;;;;;;;11.02;6.55;;;;;;;20.43;58.98;100728.25;5054847;28;20403;-77
2023/06/18 02:20:38;;;;;;;7.10;6.25;;;;;;;20.43;59.07;100725.56;5072879;28;20375;-77
2023/06/18 02:23:04;;;;;;;8.13;6.70;;;;;;;20.37;59.05;100723.84;5072025;28;20378;-77
2023/06/18 02:25:32;;;;;;;10.35;7.03;;;;;;;20.41;59.03;100722.28;5072459;28;21132;-78
2023/06/18 02:28:01;;;;;;;9.00;6.40;;;;;;;20.47;58.91;100725.91;5054014;28;20403;-77
2023/06/18 02:30:31;;;;;;;8.87;6.30;;;;;;;20.48;58.92;100730.25;5070965;28;20821;-75
2023/06/18 02:32:58;;;;;;;7.63;6.72;;;;;;;20.45;58.85;100722.66;5070477;28;20498;-76
2023/06/18 02:35:27;;;;;;;8.25;6.50;;;;;;;20.43;59.07;100738.22;5072089;28;20394;-78
2023/06/18 02:37:53;;;;;;;8.65;6.50;;;;;;;20.44;59.09;100739.88;5070415;28;20443;-77
2023/06/18 02:40:19;;;;;;;9.90;6.45;;;;;;;20.32;59.31;100737.16;5070332;28;20394;-77
2023/06/18 02:42:47;;;;;;;11.38;6.60;;;;;;;20.37;59.42;100733.78;5070327;28;20391;-78
2023/06/18 02:45:18;;;;;;;8.60;6.20;;;;;;;20.41;59.23;100737.63;5071592;28;20386;-79
2023/06/18 02:47:45;;;;;;;8.65;6.93;;;;;;;20.37;59.20;100747.25;5070555;28;20406;-77
2023/06/18 02:50:11;;;;;;;8.75;6.32;;;;;;;20.33;59.32;100748.75;5070822;28;20390;-77
2023/06/18 02:52:37;;;;;;;8.10;6.55;;;;;;;20.39;59.22;100754.03;5071727;28;20375;-77
2023/06/18 02:55:03;;;;;;;10.50;6.43;;;;;;;20.30;59.49;100750.06;5072095;28;20375;-77
2023/06/18 02:57:28;;;;;;;10.60;6.53;;;;;;;20.37;59.43;100758.84;5070158;28;20390;-77
2023/06/18 02:59:54;;;;;;;9.10;6.80;;;;;;;20.36;59.45;100757.19;5072111;28;20450;-78
2023/06/18 03:02:19;;;;;;;7.53;6.23;;;;;;;20.29;59.63;100753.78;5075887;28;20371;-77
2023/06/18 03:04:45;;;;;;;8.55;6.38;;;;;;;20.26;59.66;100759.66;5074396;28;20374;-77
2023/06/18 03:07:10;;;;;;;10.87;6.60;;;;;;;20.28;59.70;100760.22;5074781;28;20735;-76
2023/06/18 03:09:36;;;;;;;11.17;6.50;;;;;;;20.28;59.71;100767.50;5074985;28;20429;-77
2023/06/18 03:12:01;;;;;;;8.60;6.35;;;;;;;20.19;59.86;100773.22;5074567;28;20371;-78
2023/06/18 03:14:27;;;;;;;9.30;6.40;;;;;;;20.19;59.90;100772.41;5073963;28;20375;-76
2023/06/18 03:16:52;;;;;;;10.60;6.97;;;;;;;20.23;59.96;100774.38;5073611;28;20879;-76
2023/06/18 03:19:17;;;;;;;9.10;6.45;;;;;;;20.20;59.96;100776.72;5073709;28;20803;-78
2023/06/18 03:21:43;;;;;;;8.00;6.40;;;;;;;20.16;59.99;100773.66;5073983;28;20429;-78
2023/06/18 03:24:10;;;;;;;7.80;6.15;;;;;;;20.07;60.28;100788.53;5074852;28;20934;-77
2023/06/18 03:26:36;;;;;;;7.82;6.57;;;;;;;19.93;60.81;100781.69;5075515;28;20375;-77
2023/06/18 03:29:04;;;;;;;8.32;6.25;;;;;;;19.93;60.62;100782.50;5053436;28;20438;-78
2023/06/18 03:31:32;;;;;;;10.63;6.32;;;;;;;19.96;60.68;100783.94;5053204;28;20397;-77
2023/06/18 03:34:01;;;;;;;8.50;5.80;;;;;;;19.95;60.83;100791.19;5052720;28;20865;-77
2023/06/18 03:36:30;;;;;;;8.00;6.32;;;;;;;20.07;60.53;100799.28;5054241;28;20465;-77
2023/06/18 03:38:56;;;;;;;9.43;6.22;;;;;;;20.04;60.52;100788.97;5053711;28;20459;-77
2023/06/18 03:41:22;;;;;;;8.03;6.00;;;;;;;20.05;60.91;100794.13;5053841;28;20460;-77
2023/06/18 03:43:48;;;;;;;9.20;6.28;;;;;;;20.10;60.39;100789.94;5054843;28;20373;-77
2023/06/18 03:46:13;;;;;;;7.18;6.13;;;;;;;20.14;60.37;100791.94;5054499;28;20377;-77
2023/06/18 03:48:41;;;;;;;8.97;6.43;;;;;;;19.93;60.75;100795.97;5053933;28;20934;-78
2023/06/18 03:51:06;;;;;;;7.57;6.05;;;;;;;19.92;60.90;100797.03;5054292;28;20384;-77
2023/06/18 03:53:36;;;;;;;9.65;6.07;;;;;;;19.95;60.96;100796.59;5054211;28;20789;-77
2023/06/18 03:56:05;;;;;;;8.07;6.20;;;;;;;20.02;60.75;100801.84;5053323;28;20446;-77
2023/06/18 03:58:31;;;;;;;5.68;4.93;;;;;;;19.91;60.95;100816.09;5035370;28;20447;-77
2023/06/18 04:00:57;;;;;;;8.17;5.33;;;;;;;19.68;61.58;100810.38;5059057;28;20406;-77
2023/06/18 04:03:22;;;;;;;8.47;6.47;;;;;;;19.78;61.61;100814.41;5072233;28;20409;-77
2023/06/18 04:05:49;;;;;;;8.05;5.80;;;;;;;19.90;61.31;100814.44;5071631;28;20368;-76
2023/06/18 04:08:16;;;;;;;7.07;5.80;;;;;;;19.91;61.39;100818.78;5071521;28;20490;-77
2023/06/18 04:10:43;;;;;;;13.30;6.55;;;;;;;20.05;60.79;100809.47;5071793;28;20363;-76
2023/06/18 04:13:13;;;;;;;9.00;5.90;;;;;;;20.00;61.15;100809.31;5055208;28;20554;-77
2023/06/18 04:15:38;;;;;;;10.60;6.15;;;;;;;20.16;60.58;100816.72;5072673;28;20440;-76
2023/06/18 04:18:04;;;;;;;8.27;6.07;;;;;;;20.27;60.51;100820.50;5072307;28;20890;-76
2023/06/18 04:20:29;;;;;;;6.78;6.03;;;;;;;20.24;60.46;100824.47;5055304;28;20701;-77
2023/06/18 04:22:55;;;;;;;7.57;5.90;;;;;;;20.22;60.43;100818.53;5072560;28;20806;-76
2023/06/18 04:25:20;;;;;;;9.20;6.30;;;;;;;20.28;60.34;100822.16;5072583;28;20378;-75
2023/06/18 04:27:46;;;;;;;8.60;6.07;;;;;;;20.29;60.31;100825.66;5072356;28;20403;-76
2023/06/18 04:30:11;;;;;;;8.53;6.13;;;;;;;20.30;60.34;100822.72;5072391;28;20454;-76
2023/06/18 04:32:37;;;;;;;7.72;5.50;;;;;;;20.40;60.00;100831.06;5072121;28;20430;-75
2023/06/18 04:35:03;;;;;;;7.20;5.83;;;;;;;20.43;59.90;100835.16;5072253;28;20437;-76
2023/06/18 04:37:30;;;;;;;7.75;5.55;;;;;;;20.23;60.39;100836.28;5072247;28;20377;-76
2023/06/18 04:39:56;;;;;;;7.13;5.63;;;;;;;20.40;59.95;100844.53;5072291;28;20389;-76
2023/06/18 04:42:21;;;;;;;8.05;5.68;;;;;;;20.42;60.11;100838.91;5072103;28;20786;-76
2023/06/18 04:44:47;;;;;;;8.07;5.67;;;;;;;20.45;60.09;100849.19;5054643;28;20375;-77
2023/06/18 04:47:12;;;;;;;7.73;5.70;;;;;;;20.40;60.28;100839.16;5071714;28;20371;-76
2023/06/18 04:49:38;;;;;;;6.82;5.25;;;;;;;20.42;60.27;100849.69;5072191;28;20390;-77
2023/06/18 04:52:04;;;;;;;8.17;5.60;;;;;;;20.53;60.30;100851.56;5072185;28;20447;-76
2023/06/18 04:54:29;;;;;;;7.32;5.53;;;;;;;20.69;59.76;100857.31;5054721;28;20398;-77
2023/06/18 04:56:57;;;;;;;7.13;6.10;;;;;;;20.71;59.96;100857.94;5072038;28;20379;-77
2023/06/18 04:59:24;;;;;;;6.70;5.30;;;;;;;20.79;59.73;100857.56;5072024;28;20375;-76
2023/06/18 05:01:50;;;;;;;8.25;5.30;;;;;;;20.86;59.92;100860.97;5071920;28;20385;-77
2023/06/18 05:04:15;;;;;;;12.67;6.20;;;;;;;20.89;59.72;100860.50;5073769;28;20466;-77
2023/06/18 05:06:40;;;;;;;9.10;5.80;;;;;;;20.75;60.06;100861.78;5073638;28;20375;-76
2023/06/18 05:09:07;;;;;;;9.47;5.80;;;;;;;20.83;59.98;100871.41;5086870;28;20434;-77
2023/06/18 05:11:32;;;;;;;10.80;5.63;;;;;;;20.88;60.00;100874.22;5085242;28;20379;-76
2023/06/18 05:13:58;;;;;;;7.03;5.50;;;;;;;21.03;60.07;100868.34;5085492;28;20440;-77
2023/06/18 05:16:24;;;;;;;7.03;5.10;;;;;;;21.02;59.62;100872.09;5079418;28;20382;-78
2023/06/18 05:18:49;;;;;;;7.60;5.30;;;;;;;21.08;59.47;100877.34;5074297;28;20472;-78
2023/06/18 05:21:15;;;;;;;8.63;5.50;;;;;;;21.10;59.33;100882.50;5074803;28;20383;-78
2023/06/18 05:23:41;;;;;;;9.70;5.40;;;;;;;21.13;59.43;100882.88;5073586;28;20389;-78
2023/06/18 05:26:06;;;;;;;11.73;6.05;;;;;;;21.28;58.92;100873.47;5072467;28;20375;-78
2023/06/18 05:28:32;;;;;;;8.40;5.80;;;;;;;21.38;58.79;100874.50;5072833;28;20413;-78
2023/06/18 05:30:57;;;;;;;11.73;6.50;;;;;;;21.36;58.94;100882.00;5071971;28;20835;-76
2023/06/18 05:33:23;;;;;;;8.20;4.90;;;;;;;21.55;58.59;100881.88;5071327;28;20375;-76
2023/06/18 05:35:49;;;;;;;6.60;5.00;;;;;;;21.64;58.46;100890.41;5071754;28;20701;-77
2023/06/18 05:38:14;;;;;;;7.70;5.60;;;;;;;21.57;58.15;100885.16;5071197;28;20378;-77
2023/06/18 05:40:40;;;;;;;5.70;5.00;;;;;;;21.61;58.31;100897.13;5071212;28;20383;-77
2023/06/18 05:43:05;;;;;;;5.33;4.83;;;;;;;21.58;57.62;100901.09;5072526;28;20368;-78
2023/06/18 05:45:30;;;;;;;7.07;4.97;;;;;;;21.53;58.03;100911.78;5071751;28;20833;-77
2023/06/18 05:47:56;;;;;;;7.63;4.80;;;;;;;21.76;57.89;100918.19;5072402;28;20422;-78
2023/06/18 05:50:21;;;;;;;8.48;4.80;;;;;;;21.65;57.42;100909.06;5071097;28;20432;-77
2023/06/18 05:52:47;;;;;;;9.50;5.20;;;;;;;21.75;57.69;100905.75;5071285;28;21102;-77
2023/06/18 05:55:12;;;;;;;8.03;4.77;;;;;;;21.88;57.01;100907.38;5070940;28;20866;-76
2023/06/18 05:57:38;;;;;;;7.93;4.85;;;;;;;21.88;57.03;100915.47;5036808;28;20778;-77
2023/06/18 06:00:04;;;;;;;8.37;5.30;;;;;;;22.01;57.05;100914.34;5070527;28;20379;-77
2023/06/18 06:02:29;;;;;;;5.25;4.60;;;;;;;21.94;56.72;100919.88;5071621;28;20390;-77
2023/06/18 06:04:55;;;;;;;6.07;4.70;;;;;;;21.96;56.37;100915.88;5071995;28;20379;-77
2023/06/18 06:07:21;;;;;;;5.77;5.10;;;;;;;22.10;56.41;100926.41;5071539;28;20792;-77
2023/06/18 06:09:46;;;;;;;7.77;5.00;;;;;;;21.93;56.20;100918.22;5071268;28;20834;-77
2023/06/18 06:12:12;;;;;;;7.43;5.20;;;;;;;22.06;56.01;100927.94;5070922;28;20459;-77
2023/06/18 06:14:38;;;;;;;7.60;5.37;;;;;;;22.07;56.19;100930.38;5071499;28;20517;-77
2023/06/18 06:17:03;;;;;;;9.10;4.88;;;;;;;22.25;55.74;100936.66;5071668;28;20407;-77
2023/06/18 06:19:30;;;;;;;6.70;5.50;;;;;;;22.29;55.64;100929.72;5070843;28;20437;-77
2023/06/18 06:21:55;;;;;;;8.20;5.53;;;;;;;22.11;55.21;100931.56;5071009;28;20394;-78
2023/06/18 06:24:21;;;;;;;6.17;5.47;;;;;;;22.05;55.67;100934.41;5070987;28;20371;-80
2023/06/18 06:26:46;;;;;;;8.40;5.83;;;;;;;21.98;55.70;100937.22;5070799;28;20482;-76
2023/06/18 06:29:12;;;;;;;10.75;6.32;;;;;;;21.96;55.83;100933.94;5070301;28;20438;-76
2023/06/18 06:31:37;;;;;;;5.83;5.23;;;;;;;22.18;55.65;100938.69;5071117;28;20474;-78
2023/06/18 06:34:03;;;;;;;7.33;5.13;;;;;;;21.96;55.31;100937.47;5064950;28;20410;-81
2023/06/18 06:36:28;;;;;;;8.45;6.05;;;;;;;22.08;55.46;100942.00;5051478;28;20404;-77
2023/06/18 06:38:54;;;;;;;10.07;6.50;;;;;;;22.03;55.58;100936.53;5052015;28;20705;-77
2023/06/18 06:41:19;;;;;;;7.50;5.78;;;;;;;22.02;55.42;100942.97;5048589;28;20495;-77
2023/06/18 06:43:45;;;;;;;6.20;5.60;;;;;;;22.04;55.82;100941.69;5048342;28;20400;-77
2023/06/18 06:46:10;;;;;;;6.70;5.80;;;;;;;22.33;55.26;100949.81;5046175;28;20853;-77
2023/06/18 06:48:36;;;;;;;9.75;5.45;;;;;;;22.49;54.56;100945.47;5030022;28;20408;-77
2023/06/18 06:51:01;;;;;;;7.70;5.90;;;;;;;22.50;54.49;100957.91;5051095;28;20404;-77
2023/06/18 06:53:27;;;;;;;7.60;5.67;;;;;;;22.42;54.45;100952.91;5048844;28;20391;-77
2023/06/18 06:55:53;;;;;;;7.15;5.60;;;;;;;22.40;54.72;100946.94;5046889;28;20408;-77
2023/06/18 06:58:18;;;;;;;7.80;5.43;;;;;;;22.51;53.64;100941.47;5049395;28;20509;-77
2023/06/18 07:00:44;;;;;;;6.38;5.35;;;;;;;22.47;53.47;100945.72;5049886;28;20483;-78
2023/06/18 07:03:10;;;;;;;5.97;5.47;;;;;;;22.47;53.38;100950.28;5035509;28;20446;-77
2023/06/18 07:05:35;;;;;;;7.50;4.90;;;;;;;22.30;53.20;100947.56;5052263;28;20391;-77
2023/06/18 07:08:02;;;;;;;7.27;5.77;;;;;;;22.29;53.70;100957.56;5052495;28;20412;-77
2023/06/18 07:10:28;;;;;;;7.45;5.72;;;;;;;22.27;54.66;100954.28;5053191;28;20394;-76
2023/06/18 07:12:53;;;;;;;9.25;5.68;;;;;;;22.24;54.47;100957.44;5054188;28;20395;-77
2023/06/18 07:15:19;;;;;;;6.77;6.07;;;;;;;22.26;55.05;100962.59;5054186;28;20376;-77
2023/06/18 07:17:45;;;;;;;7.82;6.60;;;;;;;22.28;54.96;100955.09;5054530;28;20739;-78
2023/06/18 07:20:10;;;;;;;6.83;6.13;;;;;;;22.33;54.90;100960.59;5054094;28;20921;-77
2023/06/18 07:22:36;;;;;;;7.10;6.40;;;;;;;22.26;54.71;100965.31;5053981;28;20446;-77
2023/06/18 07:25:01;;;;;;;6.60;5.93;;;;;;;22.23;54.69;100958.50;5054022;28;20458;-77
2023/06/18 07:27:27;;;;;;;7.03;6.33;;;;;;;22.37;54.67;100971.75;5053567;28;20412;-76
2023/06/18 07:29:53;;;;;;;9.00;6.32;;;;;;;22.39;54.35;100967.72;5054104;28;20377;-77
2023/06/18 07:32:18;;;;;;;9.67;6.37;;;;;;;22.50;54.31;100974.94;5054214;28;20443;-76
2023/06/18 07:34:43;;;;;;;6.82;6.13;;;;;;;22.50;54.33;100971.44;5054032;28;20424;-76
2023/06/18 07:37:09;;;;;;;7.63;6.33;;;;;;;22.57;54.16;100969.41;5053865;28;20380;-77
2023/06/18 07:39:34;;;;;;;7.45;6.13;;;;;;;22.69;54.07;100970.16;5053995;28;20391;-76
2023/06/18 07:42:00;;;;;;;6.73;6.03;;;;;;;22.77;53.94;100974.31;5053423;28;20740;-77
2023/06/18 07:44:25;;;;;;;6.90;6.20;;;;;;;22.73;54.01;100980.47;5054810;28;20475;-77
2023/06/18 07:46:51;;;;;;;7.50;6.53;;;;;;;22.84;54.19;100972.28;5054204;28;20872;-76
2023/06/18 07:49:16;;;;;;;7.77;6.20;;;;;;;22.93;54.26;100978.09;5054261;28;20407;-76
2023/06/18 07:51:43;;;;;;;7.80;6.57;;;;;;;23.05;54.16;100988.88;5054079;28;20729;-76
2023/06/18 07:54:08;;;;;;;7.67;6.33;;;;;;;22.94;53.73;100990.56;5054553;28;20451;-76
2023/06/18 07:56:34;;;;;;;7.82;6.60;;;;;;;23.04;53.91;100988.03;5053257;28;20476;-77
2023/06/18 07:58:59;;;;;;;7.17;6.50;;;;;;;23.07;53.26;100990.25;5054150;28;20742;-77
2023/06/18 08:01:26;;;;;;;8.77;7.40;;;;;;;23.11;52.80;100992.47;5053926;28;20442;-76
2023/06/18 08:03:52;;;;;;;7.75;6.45;;;;;;;23.08;52.77;100991.91;5053771;28;20456;-76
2023/06/18 08:06:18;;;;;;;7.00;6.38;;;;;;;23.16;52.43;100992.56;5053360;28;20466;-77
2023/06/18 08:08:43;;;;;;;7.07;6.40;;;;;;;23.17;51.98;100986.06;5053574;28;20833;-78
2023/06/18 08:11:09;;;;;;;7.27;6.30;;;;;;;23.15;51.73;100990.91;5053946;28;20735;-78
2023/06/18 08:13:34;;;;;;;9.45;6.80;;;;;;;23.16;51.86;100992.56;5054387;28;20411;-77
2023/06/18 08:16:00;;;;;;;7.70;6.83;;;;;;;23.37;51.91;100996.34;5054340;28;20384;-78
2023/06/18 08:18:26;;;;;;;7.65;6.85;;;;;;;23.59;51.53;100991.81;5053919;28;20484;-77
2023/06/18 08:20:51;;;;;;;7.22;6.60;;;;;;;23.73;51.15;100992.25;5036244;28;20442;-77
2023/06/18 08:23:17;;;;;;;7.27;6.57;;;;;;;23.76;51.22;100989.03;5054009;28;20391;-77
2023/06/18 08:25:42;;;;;;;7.90;7.10;;;;;;;23.84;51.24;100990.50;5053401;28;20419;-77
2023/06/18 08:28:08;;;;;;;7.23;6.50;;;;;;;23.99;50.92;100998.84;5053744;28;20892;-77
2023/06/18 08:30:33;;;;;;;8.63;6.95;;;;;;;24.14;51.08;100998.19;5052955;28;20424;-78
2023/06/18 08:32:59;;;;;;;8.47;7.43;;;;;;;24.12;50.58;101004.94;5053488;28;20376;-77
2023/06/18 08:35:24;;;;;;;8.20;6.87;;;;;;;24.18;50.39;100996.63;5035169;28;20865;-76
2023/06/18 08:37:50;;;;;;;8.83;7.10;;;;;;;24.25;50.25;101007.25;5052826;28;20759;-77
2023/06/18 08:40:16;;;;;;;7.32;6.60;;;;;;;24.43;50.78;101009.63;5035404;28;20384;-75
2023/06/18 08:42:42;;;;;;;8.70;7.22;;;;;;;24.51;50.05;101002.13;5052777;28;20373;-77
2023/06/18 08:45:07;;;;;;;7.73;6.90;;;;;;;24.55;49.61;101006.78;5035790;28;20383;-77
2023/06/18 08:47:34;;;;;;;7.80;7.00;;;;;;;24.54;49.76;101009.75;5052484;28;20885;-77
2023/06/18 08:49:59;;;;;;;7.25;6.13;;;;;;;24.28;48.67;101011.34;5052724;28;20444;-78
2023/06/18 08:52:29;;;;;;;7.05;6.45;;;;;;;24.18;48.37;101012.03;5054279;28;20377;-78
2023/06/18 08:54:59;;;;;;;7.40;6.70;;;;;;;24.38;48.49;101006.88;5052797;28;20381;-79
2023/06/18 08:57:35;;;;;;;6.97;5.88;;;;;;;24.30;47.33;101006.50;5051328;28;20414;-77
2023/06/18 09:00:01;;;;;;;7.07;6.35;;;;;;;24.10;47.84;101007.91;5052152;28;20734;-77
2023/06/18 09:02:27;;;;;;;10.25;6.90;;;;;;;24.34;48.04;101003.00;5052418;28;20940;-77
2023/06/18 09:04:54;;;;;;;9.27;6.57;;;;;;;24.52;47.55;101001.84;5052700;28;20419;-78
2023/06/18 09:07:23;;;;;;;8.20;6.75;;;;;;;24.45;47.63;101001.22;5034826;28;20380;-77
2023/06/18 09:09:49;;;;;;;8.20;7.40;;;;;;;24.56;47.72;101002.16;5052269;28;20372;-76
2023/06/18 09:12:14;;;;;;;8.13;6.50;;;;;;;24.69;47.75;101004.47;5053261;28;20479;-78
2023/06/18 09:14:40;;;;;;;8.48;6.28;;;;;;;24.80;47.04;101005.38;5052449;28;20463;-78
2023/06/18 09:17:06;;;;;;;9.30;6.93;;;;;;;24.89;47.13;100994.88;5051826;28;20400;-77
2023/06/18 09:19:32;;;;;;;8.38;6.03;;;;;;;24.99;46.75;100997.66;5051977;28;20443;-77
2023/06/18 09:22:15;;;;;;;8.45;6.70;;;;;;;25.03;46.52;101001.50;5051755;28;20419;-77
2023/06/18 09:24:40;;;;;;;7.70;6.37;;;;;;;25.19;46.45;101007.84;5052184;28;20475;-77
2023/06/18 09:27:07;;;;;;;7.43;6.13;;;;;;;25.22;46.46;101001.09;5052063;28;20896;-77
2023/06/18 09:29:34;;;;;;;7.65;6.72;;;;;;;25.18;46.31;100995.38;5051634;28;20400;-77
2023/06/18 09:32:14;;;;;;;8.52;6.22;;;;;;;25.14;46.39;100996.97;5051533;28;20442;-77
2023/06/18 09:34:40;;;;;;;7.80;6.20;;;;;;;25.17;46.91;101002.69;5034322;28;20450;-78
2023/06/18 09:37:07;;;;;;;9.50;6.63;;;;;;;25.12;46.95;101002.66;5051334;28;20384;-77
2023/06/18 09:39:35;;;;;;;7.78;6.03;;;;;;;25.24;46.46;100999.78;5033818;28;20373;-77
2023/06/18 09:42:13;;;;;;;9.30;6.72;;;;;;;25.41;46.07;100999.63;5051503;28;20468;-77
2023/06/18 09:44:39;;;;;;;7.63;6.10;;;;;;;25.53;45.48;100999.41;5051903;28;20408;-77
2023/06/18 09:47:12;;;;;;;7.22;6.20;;;;;;;25.54;45.27;100999.13;5040333;28;20395;-77
2023/06/18 09:49:39;;;;;;;8.90;7.00;;;;;;;25.56;45.39;100998.88;5060200;28;20403;-77
2023/06/18 09:52:07;;;;;;;8.50;6.43;;;;;;;25.53;44.63;100988.53;5061699;28;20395;-77
2023/06/18 09:54:43;;;;;;;6.80;6.00;;;;;;;25.62;44.83;100986.97;5043708;28;20381;-77
2023/06/18 09:57:12;;;;;;;7.15;6.50;;;;;;;25.50;44.69;100992.63;5064243;28;20844;-77
2023/06/18 09:59:37;;;;;;;9.02;6.75;;;;;;;25.68;44.49;100996.78;5054750;28;20388;-78
2023/06/18 10:02:05;;;;;;;7.00;6.30;;;;;;;25.73;44.47;101001.41;5053535;28;20703;-80
2023/06/18 10:04:32;;;;;;;6.70;6.03;;;;;;;25.88;44.22;100995.25;5052417;28;20465;-78
2023/06/18 10:07:02;;;;;;;7.72;6.10;;;;;;;25.76;43.27;100987.28;5052111;28;20796;-79
2023/06/18 10:09:32;;;;;;;6.15;5.55;;;;;;;25.85;42.56;100998.47;5052034;28;20484;-78
2023/06/18 10:12:00;;;;;;;6.60;5.60;;;;;;;25.91;42.68;100991.97;5052256;28;20383;-78
2023/06/18 10:14:28;;;;;;;6.20;5.60;;;;;;;25.97;42.68;100988.22;5051099;28;20377;-78
2023/06/18 10:17:05;;;;;;;6.60;5.82;;;;;;;26.28;42.40;100991.03;5050294;28;20419;-78
2023/06/18 10:19:45;;;;;;;6.38;5.78;;;;;;;26.38;42.26;100985.63;5044869;28;20497;-76
2023/06/18 10:22:12;;;;;;;6.47;5.55;;;;;;;26.38;41.84;100974.75;5049480;28;20755;-77
2023/06/18 10:24:52;;;;;;;7.60;5.70;;;;;;;26.37;41.96;100980.44;5050722;28;20407;-77
2023/06/18 10:27:18;;;;;;;6.90;5.70;;;;;;;26.31;42.23;100985.06;5057829;28;20383;-77
2023/06/18 10:29:44;;;;;;;6.13;5.50;;;;;;;26.09;41.84;100990.69;5071095;28;20398;-78
2023/06/18 10:32:10;;;;;;;7.03;5.70;;;;;;;26.25;41.82;100984.25;5070330;28;20850;-77
2023/06/18 10:34:37;;;;;;;5.82;5.32;;;;;;;26.36;40.85;100976.91;5070913;28;20363;-77
2023/06/18 10:37:03;;;;;;;6.28;5.15;;;;;;;26.38;40.38;100976.63;5071013;28;20468;-77
2023/06/18 10:39:29;;;;;;;4.72;4.25;;;;;;;26.25;39.46;100978.81;5070274;28;20528;-77
2023/06/18 10:42:00;;;;;;;6.03;5.50;;;;;;;26.35;40.23;100978.00;5070524;28;20393;-78
2023/06/18 10:44:33;;;;;;;6.55;5.13;;;;;;;26.52;39.88;100970.41;5070712;28;20379;-78
2023/06/18 10:47:22;;;;;;;7.07;6.03;;;;;;;26.70;40.55;100971.81;5070779;28;20382;-78
2023/06/18 10:50:02;;;;;;;7.22;5.93;;;;;;;26.92;39.76;100967.16;5057497;28;20385;-77
2023/06/18 10:52:33;;;;;;;7.45;6.13;;;;;;;27.17;40.08;100967.16;5070673;28;20386;-78
2023/06/18 10:55:12;;;;;;;5.85;4.80;;;;;;;27.00;39.46;100972.06;5070556;28;20386;-76
2023/06/18 10:57:43;;;;;;;8.05;5.95;;;;;;;26.72;39.52;100971.53;5070434;28;20379;-77
2023/06/18 11:00:15;;;;;;;7.50;5.55;;;;;;;26.87;39.39;100959.84;5070851;28;20375;-78
2023/06/18 11:02:41;;;;;;;7.70;5.73;;;;;;;27.13;39.81;100957.06;5072279;28;20379;-78
2023/06/18 11:05:13;;;;;;;7.00;5.57;;;;;;;27.06;38.84;100966.34;5071947;28;20371;-79
2023/06/18 11:07:39;;;;;;;5.97;4.60;;;;;;;26.90;38.47;100959.28;5073628;28;20894;-79
2023/06/18 11:10:05;;;;;;;6.00;5.20;;;;;;;26.88;39.59;100962.28;5070839;28;20389;-78
2023/06/18 11:12:36;;;;;;;7.07;5.23;;;;;;;26.95;39.53;100959.28;5071093;28;20379;-78
2023/06/18 11:15:17;;;;;;;5.90;5.40;;;;;;;27.20;39.94;100955.69;5070196;28;20383;-77
2023/06/18 11:17:43;;;;;;;5.63;5.10;;;;;;;27.40;39.35;100960.28;5070117;28;20399;-79
2023/06/18 11:20:11;;;;;;;6.05;5.40;;;;;;;27.00;40.50;100955.75;5070580;28;20833;-78
2023/06/18 11:22:37;;;;;;;8.98;6.05;;;;;;;27.41;39.92;100951.03;5056650;28;20463;-78
2023/06/18 11:25:06;;;;;;;7.15;6.03;;;;;;;27.48;40.21;100949.91;5074051;28;20966;-77